Time;durP1;ratioP1;P1;durP2;ratioP2;P2;SDS_P1;SDS_P2;PMS_P1;PMS_P2;Temp;Humidity;BMP_temperature;BMP_pressure;BME280_temperature;BME280_humidity;BME280_pressure;Samples;Min_cycle;Max_cycle;Signal;HPM_P1;HPM_P2
2022/03/12 00:01:15;;;;;;;12.77;4.72;;;8.50;45.80;;;;;;4915141;29;20047;-66
2022/03/12 00:03:41;;;;;;;13.88;5.10;;;8.40;45.80;;;;;;4915402;29;20119;-67
2022/03/12 00:06:09;;;;;;;9.30;5.65;;;8.40;45.80;;;;;;4921244;29;20463;-67
2022/03/12 00:08:43;;;;;;;10.93;5.35;;;8.40;45.80;;;;;;4918218;29;20044;-67
2022/03/12 00:11:17;;;;;;;13.20;5.32;;;8.40;45.30;;;;;;4933300;29;20052;-65
2022/03/12 00:13:44;;;;;;;7.93;4.97;;;8.40;45.60;;;;;;4932728;29;20047;-67
2022/03/12 00:16:14;;;;;;;10.55;5.38;;;8.40;45.30;;;;;;4932823;29;20582;-67
2022/03/12 00:18:42;;;;;;;9.27;5.03;;;8.40;45.30;;;;;;4925517;29;20158;-67
2022/03/12 00:21:12;;;;;;;7.78;5.10;;;8.40;45.70;;;;;;4933207;28;20420;-67
2022/03/12 00:23:38;;;;;;;11.98;5.43;;;8.30;45.50;;;;;;4916863;29;20502;-67
2022/03/12 00:26:04;;;;;;;7.78;5.18;;;8.40;45.80;;;;;;4932373;29;20109;-67
2022/03/12 00:28:29;;;;;;;9.88;5.05;;;8.30;45.10;;;;;;4930401;29;20032;-67
2022/03/12 00:30:56;;;;;;;13.63;5.60;;;8.30;45.40;;;;;;4931740;29;20496;-67
2022/03/12 00:33:22;;;;;;;11.35;5.35;;;8.30;45.50;;;;;;4915210;29;20047;-67
2022/03/12 00:35:49;;;;;;;11.23;5.25;;;8.20;45.60;;;;;;4931200;29;20047;-67
2022/03/12 00:38:17;;;;;;;7.35;4.80;;;8.30;45.70;;;;;;4917235;29;20433;-67
2022/03/12 00:40:43;;;;;;;12.88;5.15;;;8.20;45.80;;;;;;4925772;29;20047;-67
2022/03/12 00:43:10;;;;;;;8.70;5.30;;;8.20;45.90;;;;;;4933056;29;20102;-67
2022/03/12 00:45:37;;;;;;;8.52;4.90;;;8.20;45.70;;;;;;4896617;29;20528;-67
2022/03/12 00:48:03;;;;;;;8.80;5.07;;;8.20;45.90;;;;;;4927218;29;20054;-65
2022/03/12 00:50:28;;;;;;;8.35;4.97;;;8.20;45.80;;;;;;4898629;29;20059;-67
2022/03/12 00:52:54;;;;;;;11.27;5.03;;;8.10;46.10;;;;;;4931903;29;20154;-67
2022/03/12 00:55:20;;;;;;;9.05;5.25;;;8.10;45.50;;;;;;4930906;29;20044;-67
2022/03/12 00:57:45;;;;;;;9.80;4.68;;;8.20;45.70;;;;;;4921443;29;20052;-67
2022/03/12 01:00:18;;;;;;;9.07;5.72;;;8.10;45.50;;;;;;4932669;29;20046;-67
2022/03/12 01:02:44;;;;;;;10.55;5.32;;;8.10;45.60;;;;;;4931341;29;20578;-67
2022/03/12 01:05:12;;;;;;;12.27;5.25;;;8.10;45.60;;;;;;4930198;29;20146;-67
2022/03/12 01:07:38;;;;;;;7.53;5.00;;;8.10;45.60;;;;;;4919850;29;20036;-67
2022/03/12 01:10:04;;;;;;;7.57;4.70;;;8.10;45.90;;;;;;4920884;29;20413;-67
2022/03/12 01:12:30;;;;;;;7.38;4.97;;;8.00;45.40;;;;;;4931052;29;20058;-67
2022/03/12 01:14:56;;;;;;;6.45;4.32;;;8.10;46.00;;;;;;4928847;29;20493;-67
2022/03/12 01:17:22;;;;;;;11.40;4.80;;;8.10;45.70;;;;;;4930936;29;20051;-67
2022/03/12 01:19:48;;;;;;;9.40;5.00;;;8.10;45.80;;;;;;4921082;29;20036;-67
2022/03/12 01:22:15;;;;;;;12.57;5.72;;;8.10;46.10;;;;;;4930192;29;20108;-67
2022/03/12 01:24:40;;;;;;;10.55;5.72;;;8.10;46.20;;;;;;4930884;29;20051;-68
2022/03/12 01:27:06;;;;;;;10.38;5.30;;;8.00;46.40;;;;;;4925304;29;20058;-67
2022/03/12 01:29:32;;;;;;;15.07;5.95;;;8.00;46.30;;;;;;4922627;29;20274;-68
2022/03/12 01:31:57;;;;;;;11.38;5.40;;;8.00;46.20;;;;;;4914857;29;20112;-68
2022/03/12 01:34:23;;;;;;;10.23;4.78;;;8.00;46.40;;;;;;4930481;29;20508;-68
2022/03/12 01:36:49;;;;;;;8.88;4.80;;;8.00;46.40;;;;;;4928516;29;20067;-68
2022/03/12 01:39:14;;;;;;;7.85;5.07;;;8.00;46.50;;;;;;4897819;29;20067;-68
2022/03/12 01:41:42;;;;;;;9.13;4.45;;;8.00;46.60;;;;;;4929795;29;20067;-68
2022/03/12 01:44:08;;;;;;;6.90;5.05;;;8.00;46.90;;;;;;4913515;29;20524;-68
2022/03/12 01:46:41;;;;;;;7.15;4.63;;;7.90;46.70;;;;;;4929807;29;20047;-68
2022/03/12 01:49:11;;;;;;;8.07;4.78;;;7.90;46.60;;;;;;4920762;29;20229;-68
2022/03/12 01:51:42;;;;;;;7.85;4.40;;;7.90;46.80;;;;;;4913037;29;20043;-68
2022/03/12 01:54:08;;;;;;;9.13;4.95;;;7.90;46.20;;;;;;4916427;29;20055;-68
2022/03/12 01:56:34;;;;;;;8.55;5.03;;;7.90;46.60;;;;;;4926928;29;20114;-67
2022/03/12 01:59:01;;;;;;;7.32;4.70;;;7.90;46.60;;;;;;4911564;29;20056;-68
2022/03/12 02:01:28;;;;;;;8.70;5.38;;;7.90;46.50;;;;;;4913739;29;20497;-68
2022/03/12 02:03:56;;;;;;;13.57;5.28;;;7.90;46.70;;;;;;4931875;29;20055;-68
2022/03/12 02:06:24;;;;;;;8.95;5.07;;;7.90;46.80;;;;;;4929516;29;20047;-67
2022/03/12 02:08:56;;;;;;;14.02;5.32;;;7.90;46.70;;;;;;4930834;29;20051;-68
2022/03/12 02:11:27;;;;;;;9.52;4.93;;;7.90;46.70;;;;;;4912868;29;20052;-68
2022/03/12 02:14:06;;;;;;;12.40;5.47;;;7.90;47.00;;;;;;4919216;29;20052;-68
2022/03/12 02:16:34;;;;;;;12.77;5.70;;;7.80;47.00;;;;;;4912901;29;20095;-68
2022/03/12 02:19:00;;;;;;;10.65;6.43;;;7.80;47.30;;;;;;4915658;29;20056;-68
2022/03/12 02:21:34;;;;;;;10.23;5.00;;;7.80;47.10;;;;;;4912395;29;20055;-68
2022/03/12 02:24:06;;;;;;;8.98;5.13;;;7.80;47.20;;;;;;4912700;29;20048;-68
2022/03/12 02:26:32;;;;;;;9.68;5.97;;;7.90;47.30;;;;;;4919079;29;20135;-68
2022/03/12 02:28:58;;;;;;;7.75;4.93;;;7.80;47.00;;;;;;4924267;29;20040;-68
2022/03/12 02:31:25;;;;;;;11.00;5.30;;;7.80;47.20;;;;;;4908245;29;20052;-68
2022/03/12 02:33:52;;;;;;;10.13;4.70;;;7.80;47.20;;;;;;4918867;29;20044;-68
2022/03/12 02:36:26;;;;;;;8.82;5.55;;;7.90;47.20;;;;;;4931008;29;20063;-68
2022/03/12 02:38:54;;;;;;;13.10;5.38;;;7.80;47.20;;;;;;4919159;29;20096;-68
2022/03/12 02:41:22;;;;;;;8.18;5.70;;;7.80;47.20;;;;;;4912438;29;20048;-68
2022/03/12 02:43:48;;;;;;;10.93;5.90;;;7.80;47.20;;;;;;4921027;29;20131;-68
2022/03/12 02:46:14;;;;;;;9.23;4.88;;;7.70;47.30;;;;;;4915989;29;20135;-68
2022/03/12 02:48:42;;;;;;;9.55;5.03;;;7.80;47.40;;;;;;4921849;29;20448;-68
2022/03/12 02:51:08;;;;;;;10.38;6.00;;;7.60;47.50;;;;;;4919262;29;20052;-68
2022/03/12 02:53:34;;;;;;;11.18;5.35;;;7.60;47.70;;;;;;4912741;29;20059;-68
2022/03/12 02:55:59;;;;;;;11.15;5.40;;;7.60;47.60;;;;;;4913254;29;20489;-68
2022/03/12 02:58:26;;;;;;;14.45;5.15;;;7.70;47.70;;;;;;4931697;29;20048;-68
2022/03/12 03:00:53;;;;;;;9.70;5.25;;;7.70;47.40;;;;;;4919519;29;20107;-68
2022/03/12 03:03:19;;;;;;;10.32;5.63;;;7.60;47.60;;;;;;4915735;29;20059;-68
2022/03/12 03:05:47;;;;;;;11.23;5.80;;;7.60;47.40;;;;;;4926395;29;20445;-68
2022/03/12 03:08:21;;;;;;;26.83;9.18;;;7.60;47.70;;;;;;4915385;29;20052;-68
2022/03/12 03:10:49;;;;;;;12.52;5.78;;;7.70;47.80;;;;;;4916064;29;20050;-68
2022/03/12 03:13:17;;;;;;;9.38;6.07;;;7.70;48.00;;;;;;4915358;29;20116;-68
2022/03/12 03:15:49;;;;;;;11.23;5.03;;;7.80;47.60;;;;;;4926237;29;20052;-68
2022/03/12 03:18:20;;;;;;;8.45;5.50;;;7.80;47.40;;;;;;4915147;29;20063;-68
2022/03/12 03:20:47;;;;;;;13.65;5.47;;;7.80;47.90;;;;;;4915810;29;20151;-68
2022/03/12 03:23:13;;;;;;;10.63;5.47;;;7.80;48.70;;;;;;4915664;29;20052;-68
2022/03/12 03:25:39;;;;;;;11.18;6.75;;;7.90;49.00;;;;;;4915768;29;20088;-67
2022/03/12 03:28:06;;;;;;;12.02;6.50;;;7.80;49.40;;;;;;4918124;29;20046;-67
2022/03/12 03:30:37;;;;;;;8.27;5.20;;;7.80;49.90;;;;;;4923570;29;20048;-67
2022/03/12 03:33:08;;;;;;;10.88;6.25;;;7.70;50.00;;;;;;4915035;29;20059;-67
2022/03/12 03:35:34;;;;;;;9.20;6.35;;;7.80;49.80;;;;;;4921418;29;20445;-67
2022/03/12 03:38:00;;;;;;;15.32;6.07;;;7.70;49.80;;;;;;4915140;29;20135;-67
2022/03/12 03:40:26;;;;;;;11.88;5.45;;;7.70;49.90;;;;;;4922399;29;20134;-68
2022/03/12 03:42:53;;;;;;;10.00;5.88;;;7.70;50.10;;;;;;4933704;29;20043;-68
2022/03/12 03:45:23;;;;;;;9.30;6.03;;;7.70;50.10;;;;;;4929228;29;20044;-68
2022/03/12 03:47:50;;;;;;;12.40;5.53;;;7.70;50.00;;;;;;4923591;29;20268;-68
2022/03/12 03:50:25;;;;;;;12.77;5.72;;;7.80;50.00;;;;;;4916088;29;20036;-68
2022/03/12 03:52:54;;;;;;;9.85;5.55;;;7.80;49.90;;;;;;4898092;29;20056;-68
2022/03/12 03:55:20;;;;;;;10.02;5.85;;;7.80;50.30;;;;;;4918718;29;20563;-68
2022/03/12 03:57:45;;;;;;;10.35;5.85;;;7.90;50.20;;;;;;4932572;29;20079;-68
2022/03/12 04:00:11;;;;;;;10.05;5.55;;;7.80;50.30;;;;;;4926308;29;20067;-68
2022/03/12 04:02:37;;;;;;;11.48;5.70;;;7.90;50.50;;;;;;4914315;29;20450;-68
2022/03/12 04:05:03;;;;;;;13.73;6.35;;;7.90;51.00;;;;;;4915316;29;20080;-68
2022/03/12 04:07:28;;;;;;;16.02;7.15;;;7.90;52.00;;;;;;4933601;29;20515;-68
2022/03/12 04:09:54;;;;;;;14.80;6.65;;;7.80;52.20;;;;;;4929778;29;20052;-68
2022/03/12 04:12:20;;;;;;;10.57;6.88;;;7.80;53.30;;;;;;4915481;29;20064;-68
2022/03/12 04:14:45;;;;;;;13.52;6.75;;;7.70;53.80;;;;;;4914676;29;20139;-68
2022/03/12 04:17:15;;;;;;;12.95;6.90;;;7.60;55.00;;;;;;4929487;29;20580;-68
2022/03/12 04:19:41;;;;;;;11.05;6.40;;;7.60;55.50;;;;;;4915755;29;20135;-68
2022/03/12 04:22:07;;;;;;;11.98;6.65;;;7.60;56.10;;;;;;4914558;29;20143;-67
2022/03/12 04:24:35;;;;;;;10.82;7.15;;;7.60;56.60;;;;;;4914049;29;20128;-68
2022/03/12 04:27:02;;;;;;;10.05;6.95;;;7.50;57.70;;;;;;4927990;29;20059;-68
2022/03/12 04:29:27;;;;;;;13.18;8.00;;;7.40;58.10;;;;;;4918281;29;20048;-68
2022/03/12 04:31:53;;;;;;;12.30;6.35;;;7.40;58.60;;;;;;4914360;29;20052;-68
2022/03/12 04:34:19;;;;;;;12.10;7.35;;;7.40;59.10;;;;;;4913698;29;20075;-68
2022/03/12 04:36:46;;;;;;;14.38;7.30;;;7.40;59.30;;;;;;4926081;29;20548;-68
2022/03/12 04:39:12;;;;;;;12.02;6.70;;;7.30;60.50;;;;;;4920905;29;20107;-68
2022/03/12 04:41:39;;;;;;;15.40;7.15;;;7.30;60.20;;;;;;4914098;29;20047;-68
2022/03/12 04:44:07;;;;;;;13.02;7.45;;;7.20;61.40;;;;;;4916166;29;20056;-68
2022/03/12 04:46:36;;;;;;;13.68;8.20;;;7.20;62.30;;;;;;4923419;29;20051;-67
2022/03/12 04:49:04;;;;;;;15.77;7.68;;;7.10;63.10;;;;;;4920763;29;20561;-67
2022/03/12 04:51:30;;;;;;;11.90;7.47;;;7.10;62.20;;;;;;4916598;29;20413;-67
2022/03/12 04:53:59;;;;;;;13.23;6.88;;;7.10;62.50;;;;;;4914611;29;20044;-67
2022/03/12 04:56:26;;;;;;;10.52;7.68;;;7.10;63.10;;;;;;4914960;29;20040;-68
2022/03/12 04:58:53;;;;;;;15.65;7.65;;;7.10;63.70;;;;;;4927311;29;20094;-67
2022/03/12 05:01:25;;;;;;;11.48;7.22;;;7.10;63.70;;;;;;4930165;29;20567;-67
2022/03/12 05:03:52;;;;;;;;;;;7.10;63.30;;;;;;4933002;29;20083;-67
2022/03/12 05:06:18;;;;;;;13.50;6.85;;;7.00;65.50;;;;;;4925902;29;19923;-68
2022/03/12 05:08:46;;;;;;;11.18;7.60;;;6.90;64.00;;;;;;4927129;29;20127;-68
2022/03/12 05:11:11;;;;;;;12.02;7.75;;;7.00;64.00;;;;;;4910561;29;20048;-68
2022/03/12 05:13:37;;;;;;;17.50;7.65;;;6.90;65.50;;;;;;4924870;29;20052;-68
2022/03/12 05:16:06;;;;;;;13.63;8.23;;;7.00;65.10;;;;;;4928341;29;20059;-69
2022/03/12 05:18:34;;;;;;;12.85;7.30;;;6.90;65.20;;;;;;4920253;29;20051;-69
2022/03/12 05:21:00;;;;;;;9.55;7.18;;;6.90;64.60;;;;;;4917545;29;20127;-69
2022/03/12 05:23:26;;;;;;;11.52;7.47;;;6.90;64.70;;;;;;4929541;29;20543;-68
2022/03/12 05:25:52;;;;;;;18.40;8.00;;;6.90;64.60;;;;;;4944516;28;20146;-68
2022/03/12 05:28:22;;;;;;;12.30;7.70;;;6.90;65.40;;;;;;4932788;29;20123;-63
2022/03/12 05:30:49;;;;;;;10.73;6.97;;;6.90;65.20;;;;;;4926869;29;20044;-68
2022/03/12 05:33:19;;;;;;;9.82;7.10;;;8.10;68.90;;;;;;4931480;29;20040;-69
2022/03/12 05:35:48;;;;;;;14.77;7.30;;;7.90;64.70;;;;;;4926624;29;20587;-68
2022/03/12 05:38:14;;;;;;;11.75;7.28;;;7.70;63.80;;;;;;4918517;29;20047;-68
2022/03/12 05:40:41;;;;;;;10.45;6.90;;;7.50;63.40;;;;;;4913402;29;20416;-68
2022/03/12 05:43:09;;;;;;;13.85;7.90;;;7.40;63.20;;;;;;4919421;29;20060;-68
2022/03/12 05:45:35;;;;;;;12.55;8.20;;;7.30;63.00;;;;;;4914545;29;20055;-68
2022/03/12 05:48:01;;;;;;;16.05;7.85;;;7.20;62.90;;;;;;4918723;28;20476;-67
2022/03/12 05:50:27;;;;;;;15.02;7.78;;;7.10;63.00;;;;;;4916628;29;20151;-68
2022/03/12 05:52:54;;;;;;;12.63;7.40;;;6.90;63.70;;;;;;4930707;29;20510;-68
2022/03/12 05:55:23;;;;;;;15.55;7.90;;;6.90;63.40;;;;;;4914729;29;20048;-67
2022/03/12 05:57:49;;;;;;;12.68;7.50;;;6.80;63.50;;;;;;4922580;29;20047;-66
2022/03/12 06:00:17;;;;;;;13.68;7.45;;;6.70;63.40;;;;;;4919873;29;20497;-66
2022/03/12 06:02:53;;;;;;;12.43;7.28;;;6.60;64.30;;;;;;4933350;29;20039;-66
2022/03/12 06:05:23;;;;;;;12.73;6.88;;;6.60;64.00;;;;;;4914447;29;20052;-66
2022/03/12 06:07:50;;;;;;;15.60;7.53;;;6.60;63.70;;;;;;4922783;29;20059;-67
2022/03/12 06:10:18;;;;;;;15.63;8.70;;;6.50;63.70;;;;;;4924618;29;20493;-66
2022/03/12 06:12:45;;;;;;;13.70;7.85;;;6.50;63.60;;;;;;4931262;29;20043;-66
2022/03/12 06:15:14;;;;;;;10.50;7.53;;;6.40;63.80;;;;;;4930665;29;20047;-67
2022/03/12 06:17:40;;;;;;;17.63;8.07;;;6.40;63.60;;;;;;4927659;29;20087;-67
2022/03/12 06:20:08;;;;;;;11.63;7.47;;;6.40;63.80;;;;;;4912270;29;20040;-67
2022/03/12 06:22:34;;;;;;;10.52;6.82;;;6.30;63.70;;;;;;4898111;29;20501;-67
2022/03/12 06:25:00;;;;;;;12.45;8.65;;;6.30;63.80;;;;;;4917254;29;20344;-67
2022/03/12 06:27:25;;;;;;;14.52;8.10;;;6.30;63.80;;;;;;4926155;29;20552;-67
2022/03/12 06:29:52;;;;;;;13.35;7.72;;;6.30;63.80;;;;;;4926064;29;20087;-67
2022/03/12 06:32:18;;;;;;;14.40;7.75;;;6.20;63.80;;;;;;4922832;29;20044;-67
2022/03/12 06:34:44;;;;;;;12.68;8.20;;;6.20;64.00;;;;;;4922009;29;20094;-67
2022/03/12 06:37:10;;;;;;;12.27;7.25;;;6.20;63.90;;;;;;4896643;29;20063;-66
2022/03/12 06:39:36;;;;;;;14.52;8.48;;;6.20;64.00;;;;;;4927099;29;20044;-67
2022/03/12 06:42:03;;;;;;;10.95;7.38;;;6.20;64.00;;;;;;4920155;29;20404;-67
2022/03/12 06:44:32;;;;;;;12.23;7.70;;;6.20;63.90;;;;;;4931522;29;20139;-68
2022/03/12 06:46:59;;;;;;;12.00;7.43;;;6.20;64.00;;;;;;4932870;29;20135;-68
2022/03/12 06:49:26;;;;;;;16.05;7.95;;;6.20;64.20;;;;;;4932385;29;20112;-67
2022/03/12 06:51:51;;;;;;;11.82;7.82;;;6.20;64.20;;;;;;4932857;29;20627;-68
2022/03/12 06:54:17;;;;;;;11.13;7.10;;;6.20;64.70;;;;;;4924299;29;20083;-67
2022/03/12 06:56:42;;;;;;;10.93;7.10;;;6.30;64.30;;;;;;4915996;29;20044;-67
2022/03/12 06:59:08;;;;;;;13.73;7.40;;;6.30;64.70;;;;;;4914886;29;20044;-67
2022/03/12 07:01:34;;;;;;;10.13;6.72;;;6.30;64.70;;;;;;4924992;29;20570;-67
2022/03/12 07:03:59;;;;;;;17.25;8.48;;;6.40;64.70;;;;;;4932440;29;20035;-67
2022/03/12 07:06:25;;;;;;;14.35;8.60;;;6.50;64.00;;;;;;4934722;29;20035;-67
2022/03/12 07:08:51;;;;;;;11.60;7.45;;;6.60;63.70;;;;;;4930312;29;20393;-67
2022/03/12 07:11:17;;;;;;;12.60;7.72;;;6.80;63.40;;;;;;4934584;29;20142;-67
2022/03/12 07:13:43;;;;;;;16.25;7.53;;;6.90;63.00;;;;;;4916692;29;20047;-67
2022/03/12 07:16:09;;;;;;;14.73;7.22;;;6.90;62.90;;;;;;4934488;29;20534;-67
2022/03/12 07:18:34;;;;;;;15.88;8.02;;;7.00;62.60;;;;;;4926591;29;20457;-67
2022/03/12 07:21:00;;;;;;;16.10;8.10;;;7.10;62.40;;;;;;4916978;29;20051;-67
2022/03/12 07:23:26;;;;;;;16.00;8.13;;;7.10;62.10;;;;;;4925459;29;20397;-67
2022/03/12 07:25:52;;;;;;;13.15;8.57;;;7.20;62.10;;;;;;4916020;29;20044;-66
2022/03/12 07:28:20;;;;;;;15.52;7.90;;;7.40;61.70;;;;;;4923419;29;20052;-66
2022/03/12 07:30:46;;;;;;;18.88;7.85;;;7.50;61.60;;;;;;4915246;29;20051;-67
2022/03/12 07:33:11;;;;;;;16.17;7.80;;;7.50;61.50;;;;;;4924963;29;20104;-67
2022/03/12 07:35:37;;;;;;;12.10;7.22;;;7.60;61.10;;;;;;4914930;29;20500;-67
2022/03/12 07:38:04;;;;;;;12.32;7.25;;;7.70;60.80;;;;;;4923270;29;20131;-67
2022/03/12 07:40:30;;;;;;;12.77;7.43;;;7.80;61.00;;;;;;4915116;29;20044;-67
2022/03/12 07:42:56;;;;;;;13.95;7.88;;;7.80;61.00;;;;;;4917262;29;20433;-67
2022/03/12 07:45:21;;;;;;;13.05;8.15;;;7.90;60.90;;;;;;4933305;29;20344;-67
2022/03/12 07:47:49;;;;;;;13.73;8.35;;;8.00;60.80;;;;;;4922737;29;20151;-68
2022/03/12 07:50:15;;;;;;;12.20;8.10;;;8.00;60.70;;;;;;4933374;29;20063;-67
2022/03/12 07:52:42;;;;;;;11.23;7.40;;;8.10;60.60;;;;;;4920219;29;20490;-67
2022/03/12 07:55:11;;;;;;;12.15;7.90;;;8.20;60.50;;;;;;4915027;29;20052;-67
2022/03/12 07:57:37;;;;;;;10.60;6.80;;;8.20;60.30;;;;;;4915842;29;20054;-67
2022/03/12 08:00:08;;;;;;;16.63;9.18;;;8.40;60.60;;;;;;4930201;29;20139;-67
2022/03/12 08:02:34;;;;;;;13.07;8.27;;;8.50;60.90;;;;;;4932187;29;20051;-67
2022/03/12 08:04:59;;;;;;;12.23;7.82;;;8.50;60.80;;;;;;4932600;29;20054;-68
2022/03/12 08:07:26;;;;;;;11.65;8.18;;;8.60;60.90;;;;;;4933200;29;20058;-68
2022/03/12 08:09:56;;;;;;;14.57;7.75;;;8.70;60.70;;;;;;4918799;29;20056;-66
2022/03/12 08:12:24;;;;;;;14.50;8.32;;;8.80;60.40;;;;;;4920613;29;20497;-66
2022/03/12 08:14:50;;;;;;;13.85;8.45;;;8.80;60.60;;;;;;4927015;29;20576;-67
2022/03/12 08:17:19;;;;;;;14.77;8.43;;;8.90;60.80;;;;;;4931946;29;20120;-67
2022/03/12 08:19:45;;;;;;;18.33;9.52;;;9.00;60.70;;;;;;4915689;29;20055;-67
2022/03/12 08:22:11;;;;;;;11.63;7.97;;;9.10;60.80;;;;;;4917462;29;20059;-67
2022/03/12 08:24:37;;;;;;;15.07;8.10;;;9.10;61.10;;;;;;4915580;29;20040;-67
2022/03/12 08:27:03;;;;;;;16.35;8.63;;;9.10;61.00;;;;;;4914438;29;20127;-67
2022/03/12 08:29:29;;;;;;;18.02;9.32;;;9.20;60.80;;;;;;4906127;29;20079;-67
2022/03/12 08:31:55;;;;;;;14.77;8.18;;;9.20;60.90;;;;;;4915325;29;20497;-67
2022/03/12 08:34:20;;;;;;;24.27;9.43;;;9.30;60.80;;;;;;4932125;29;22300;-67
2022/03/12 08:36:46;;;;;;;15.35;8.98;;;9.30;61.10;;;;;;4929640;29;20778;-67
2022/03/12 08:39:13;;;;;;;14.30;9.68;;;9.30;61.20;;;;;;4915398;29;20055;-67
2022/03/12 08:41:39;;;;;;;14.63;9.38;;;9.40;61.40;;;;;;4927924;29;20051;-67
2022/03/12 08:44:06;;;;;;;17.75;11.18;;;9.50;61.50;;;;;;4916372;29;20051;-67
2022/03/12 08:46:32;;;;;;;20.75;9.60;;;9.50;61.70;;;;;;4922516;29;20086;-68
2022/03/12 08:48:58;;;;;;;14.40;10.25;;;9.60;61.70;;;;;;4925374;29;20059;-68
2022/03/12 08:51:24;;;;;;;14.93;10.20;;;9.60;61.50;;;;;;4916271;29;20048;-68
2022/03/12 08:53:49;;;;;;;14.30;9.70;;;9.70;61.50;;;;;;4926707;29;20131;-68
2022/03/12 08:56:15;;;;;;;15.05;9.80;;;9.70;61.80;;;;;;4915828;29;20047;-67
2022/03/12 08:58:41;;;;;;;13.05;6.93;;;9.80;62.20;;;;;;4925266;29;20092;-66
2022/03/12 09:01:08;;;;;;;14.00;9.65;;;10.10;63.10;;;;;;4916930;29;20131;-66
2022/03/12 09:03:37;;;;;;;16.90;9.85;;;10.30;62.50;;;;;;4932147;29;20075;-67
2022/03/12 09:06:04;;;;;;;18.20;9.65;;;10.30;62.80;;;;;;4916726;29;20077;-68
2022/03/12 09:08:31;;;;;;;19.10;10.52;;;10.30;62.80;;;;;;4926586;29;20446;-68
2022/03/12 09:10:58;;;;;;;14.88;8.70;;;10.30;62.90;;;;;;4926392;29;20048;-68
2022/03/12 09:13:23;;;;;;;15.52;9.23;;;10.30;63.20;;;;;;4930145;29;20051;-68
2022/03/12 09:15:49;;;;;;;17.45;10.10;;;10.30;63.30;;;;;;4931064;29;20050;-68
2022/03/12 09:18:15;;;;;;;13.68;9.13;;;10.40;63.50;;;;;;4932055;29;20055;-67
2022/03/12 09:20:47;;;;;;;14.80;9.05;;;10.40;64.00;;;;;;4922477;29;20059;-67
2022/03/12 09:23:19;;;;;;;15.02;9.23;;;10.40;64.60;;;;;;4915013;29;20043;-68
2022/03/12 09:25:45;;;;;;;;;;;10.40;64.50;;;;;;4921014;29;20429;-68
2022/03/12 09:28:13;;;;;;;14.85;8.65;;;10.40;65.50;;;;;;4912559;29;19938;-67
2022/03/12 09:30:39;;;;;;;15.25;9.55;;;10.50;64.80;;;;;;4916427;29;20134;-68
2022/03/12 09:33:06;;;;;;;14.95;9.18;;;10.60;64.80;;;;;;4932035;29;20162;-68
2022/03/12 09:35:32;;;;;;;21.02;9.02;;;10.60;64.60;;;;;;4931453;29;20114;-68
2022/03/12 09:37:58;;;;;;;13.82;8.52;;;10.70;64.90;;;;;;4919099;29;20048;-67
2022/03/12 09:40:24;;;;;;;13.98;8.75;;;10.80;64.90;;;;;;4924410;29;20040;-67
2022/03/12 09:42:50;;;;;;;12.45;8.85;;;10.80;64.80;;;;;;4912337;29;20131;-67
2022/03/12 09:45:16;;;;;;;17.02;8.77;;;10.80;64.80;;;;;;4909246;29;20048;-68
2022/03/12 09:47:42;;;;;;;11.27;7.50;;;10.80;64.80;;;;;;4912578;29;20075;-67
2022/03/12 09:50:09;;;;;;;15.20;9.05;;;10.90;64.90;;;;;;4920794;29;20055;-67
2022/03/12 09:52:35;;;;;;;11.10;8.30;;;10.90;65.10;;;;;;4930995;29;20492;-67
2022/03/12 09:55:01;;;;;;;10.63;6.90;;;11.00;65.60;;;;;;4926862;29;20130;-68
2022/03/12 09:57:26;;;;;;;10.65;7.93;;;10.90;66.00;;;;;;4932795;29;20114;-68
2022/03/12 09:59:52;;;;;;;13.50;7.50;;;11.00;65.90;;;;;;4930690;29;20489;-68
2022/03/12 10:02:19;;;;;;;11.20;7.57;;;11.10;66.00;;;;;;4931225;29;20493;-69
2022/03/12 10:04:45;;;;;;;10.98;7.55;;;11.10;66.20;;;;;;4931170;29;20048;-68
2022/03/12 10:07:11;;;;;;;11.68;7.70;;;11.20;66.90;;;;;;4932242;29;20050;-67
2022/03/12 10:09:37;;;;;;;12.32;7.28;;;11.20;66.50;;;;;;4924549;29;20079;-67
2022/03/12 10:12:04;;;;;;;12.05;7.45;;;11.30;66.50;;;;;;4919969;29;20039;-66
2022/03/12 10:14:30;;;;;;;10.32;6.78;;;11.40;67.10;;;;;;4917813;29;20087;-66
2022/03/12 10:16:56;;;;;;;14.10;7.38;;;11.50;66.70;;;;;;4931638;29;20450;-67
2022/03/12 10:19:22;;;;;;;12.07;7.22;;;11.50;67.10;;;;;;4922867;29;20040;-67
2022/03/12 10:21:47;;;;;;;17.92;7.15;;;11.60;67.30;;;;;;4935450;29;20052;-67
2022/03/12 10:24:14;;;;;;;8.55;6.10;;;11.60;67.40;;;;;;4929879;29;20048;-67
2022/03/12 10:26:41;;;;;;;12.73;6.18;;;11.70;67.00;;;;;;4922219;29;20044;-67
2022/03/12 10:29:08;;;;;;;10.50;5.38;;;11.70;67.00;;;;;;4933602;29;20081;-67
2022/03/12 10:31:34;;;;;;;12.50;6.15;;;11.80;66.70;;;;;;4936737;29;20532;-67
2022/03/12 10:34:32;;;;;;;10.13;5.57;;;11.80;66.80;;;;;;4950377;29;20098;-66
2022/03/12 10:36:58;;;;;;;8.48;6.05;;;11.90;67.30;;;;;;4892299;29;20048;-67
2022/03/12 10:40:06;;;;;;;9.07;5.30;;;11.90;67.20;;;;;;4933725;29;20055;-66
2022/03/12 10:42:34;;;;;;;9.05;5.25;;;12.00;66.50;;;;;;4919793;29;20064;-66
2022/03/12 10:45:11;;;;;;;8.90;6.40;;;11.90;66.50;;;;;;4946567;29;20050;-66
2022/03/12 10:47:51;;;;;;;10.05;5.38;;;12.10;66.60;;;;;;4940760;29;20066;-66
2022/03/12 10:50:29;;;;;;;7.13;5.00;;;12.10;66.50;;;;;;4934730;29;20067;-66
2022/03/12 10:52:57;;;;;;;7.03;4.10;;;12.10;66.60;;;;;;4921176;29;20126;-67
2022/03/12 10:55:28;;;;;;;9.93;4.78;;;12.20;66.30;;;;;;4934452;29;20067;-66
2022/03/12 10:58:07;;;;;;;10.67;5.40;;;12.30;65.70;;;;;;4933775;29;20047;-66
2022/03/12 11:00:46;;;;;;;10.02;5.60;;;12.30;65.70;;;;;;4924063;29;20044;-67
2022/03/12 11:03:15;;;;;;;9.20;3.90;;;12.30;66.10;;;;;;4933564;29;20051;-67
2022/03/12 11:05:43;;;;;;;8.63;4.43;;;12.50;65.70;;;;;;4934892;29;20058;-66
2022/03/12 11:08:18;;;;;;;10.27;4.63;;;12.50;65.50;;;;;;4934648;29;20052;-66
2022/03/12 11:10:52;;;;;;;11.70;3.95;;;12.50;65.30;;;;;;4934305;29;20060;-67
2022/03/12 11:13:40;;;;;;;7.53;3.42;;;12.60;64.80;;;;;;4930068;29;20544;-66
2022/03/12 11:16:10;;;;;;;6.80;3.80;;;12.60;64.60;;;;;;4915957;29;20052;-66
2022/03/12 11:18:36;;;;;;;7.00;3.95;;;12.60;64.60;;;;;;4933879;29;20040;-66
2022/03/12 11:21:01;;;;;;;10.18;4.38;;;12.70;64.00;;;;;;4942072;29;20043;-66
2022/03/12 11:23:30;;;;;;;7.75;4.35;;;12.70;64.00;;;;;;4936819;29;20115;-66
2022/03/12 11:26:06;;;;;;;8.55;3.80;;;12.80;63.90;;;;;;4934205;29;20044;-66
2022/03/12 11:28:36;;;;;;;7.68;3.65;;;12.80;63.40;;;;;;4934642;29;20043;-66
2022/03/12 11:31:05;;;;;;;11.70;4.18;;;12.90;63.40;;;;;;4934280;29;20135;-67
2022/03/12 11:33:31;;;;;;;6.90;3.22;;;12.90;63.20;;;;;;4934136;29;20095;-67
2022/03/12 11:35:59;;;;;;;8.73;3.17;;;12.90;62.40;;;;;;4933646;29;20051;-67
2022/03/12 11:38:24;;;;;;;9.93;4.20;;;12.90;62.00;;;;;;4933436;29;20063;-67
2022/03/12 11:41:12;;;;;;;11.95;4.20;;;12.90;62.00;;;;;;4916417;29;20043;-67
2022/03/12 11:43:40;;;;;;;10.77;5.22;;;13.00;62.30;;;;;;4901476;29;20052;-66
2022/03/12 11:46:08;;;;;;;6.00;3.42;;;13.00;62.60;;;;;;4903021;29;20505;-67
2022/03/12 11:48:38;;;;;;;7.25;4.38;;;13.00;62.40;;;;;;4933129;29;20056;-66
2022/03/12 11:51:17;;;;;;;9.02;3.40;;;13.00;62.00;;;;;;4933854;29;20048;-67
2022/03/12 11:53:45;;;;;;;14.65;4.22;;;13.10;62.00;;;;;;4933575;29;20058;-67
2022/03/12 11:56:10;;;;;;;6.63;3.00;;;13.10;61.60;;;;;;4928609;29;20054;-67
2022/03/12 11:58:36;;;;;;;7.45;3.50;;;13.10;61.60;;;;;;4914622;29;20040;-67
2022/03/12 12:01:01;;;;;;;7.18;3.30;;;13.10;61.30;;;;;;4918175;29;20064;-66
2022/03/12 12:03:27;;;;;;;10.52;3.55;;;13.20;61.50;;;;;;4919868;29;20058;-66
2022/03/12 12:05:55;;;;;;;8.10;4.93;;;13.20;61.20;;;;;;4923035;29;20137;-66
2022/03/12 12:08:20;;;;;;;7.85;3.33;;;13.20;61.20;;;;;;4926392;29;20052;-66
2022/03/12 12:10:47;;;;;;;8.50;3.67;;;13.20;60.80;;;;;;4947148;29;20130;-66
2022/03/12 12:13:13;;;;;;;7.18;3.10;;;13.20;61.60;;;;;;4939387;29;20059;-67
2022/03/12 12:15:41;;;;;;;7.55;3.45;;;13.20;61.20;;;;;;4933252;29;20230;-67
2022/03/12 12:18:12;;;;;;;8.10;4.00;;;13.30;61.40;;;;;;4930510;29;20523;-65
2022/03/12 12:20:38;;;;;;;9.52;3.13;;;13.30;61.00;;;;;;4926809;29;20056;-65
2022/03/12 12:23:04;;;;;;;10.18;3.75;;;13.40;60.90;;;;;;4927315;29;20043;-66
2022/03/12 12:25:33;;;;;;;10.27;3.28;;;13.50;60.40;;;;;;4928232;29;20516;-66
2022/03/12 12:27:58;;;;;;;9.90;4.63;;;13.50;60.50;;;;;;4931373;29;20051;-67
2022/03/12 12:30:38;;;;;;;7.45;4.03;;;13.60;60.30;;;;;;4929644;29;20040;-66
2022/03/12 12:33:27;;;;;;;5.60;3.28;;;13.60;60.20;;;;;;4930639;29;20523;-67
2022/03/12 12:36:15;;;;;;;9.52;3.67;;;13.70;60.50;;;;;;4931325;29;20043;-66
2022/03/12 12:39:08;;;;;;;5.32;3.88;;;13.80;60.50;;;;;;4927414;29;20048;-67
2022/03/12 12:42:01;;;;;;;9.50;3.60;;;13.90;59.80;;;;;;4930135;29;20052;-66
2022/03/12 12:44:39;;;;;;;7.63;4.03;;;13.90;59.60;;;;;;4930956;29;20445;-67
2022/03/12 12:47:06;;;;;;;9.55;3.97;;;13.90;59.20;;;;;;4930318;29;20095;-67
2022/03/12 12:49:40;;;;;;;7.75;3.67;;;14.00;59.20;;;;;;4913224;29;20059;-67
2022/03/12 12:52:07;;;;;;;10.10;4.10;;;14.10;58.70;;;;;;4912341;29;20123;-67